Watson, Louisiana
Current Conditions -  °F | °C
As of 9:53 AM on Friday 28 Nov 2014 (Local Time) from KBTR Reporting Station
Clear Clear  
Wind Chill: 50°   Ceiling: Unl
Heat Index: 50°   Visibility: 10mi
Dew Point: 32°   Wind: 8mph
Humidity: 50%   Direction: 80°E
Pressure: 30.44"   Gusts: NA
Location:  30.58°N, 90.95°W
Report Text: KBTR 281553Z 08007KT 10SM CLR 10/00 A3044 RMK AO2 SLP306 T01000000
Loading
Personal Weather Stations






























Interactive Weather Map New forecast layout! Learn more

10-Day Weather Forecast

Advertisements
Track Severe Weather on mobile